Time;durP1;ratioP1;P1;durP2;ratioP2;P2;SDS_P1;SDS_P2;PMS_P1;PMS_P2;Temp;Humidity;BMP_temperature;BMP_pressure;BME280_temperature;BME280_humidity;BME280_pressure;Samples;Min_cycle;Max_cycle;Signal;HPM_P1;HPM_P2
2021/08/20 00:00:37;;;;;;;13.90;3.87;;;;;;;21.58;56.47;99332.28;3463192;28;20045;-74
2021/08/20 00:02:18;;;;;;;13.27;4.37;;;;;;;21.56;56.46;99327.13;3461906;28;20041;-74
2021/08/20 00:04:01;;;;;;;7.30;4.37;;;;;;;21.56;56.44;99329.84;3464861;28;20033;-76
2021/08/20 00:05:43;;;;;;;18.33;4.88;;;;;;;21.56;56.58;99333.38;3463869;28;20060;-75
2021/08/20 00:07:23;;;;;;;13.67;5.77;;;;;;;21.55;56.44;99334.44;3460429;28;20033;-75
2021/08/20 00:09:04;;;;;;;19.17;4.73;;;;;;;21.54;56.42;99338.25;3466620;28;20100;-74
2021/08/20 00:10:45;;;;;;;11.70;4.00;;;;;;;21.54;56.43;99340.16;3460482;28;20507;-75
2021/08/20 00:12:27;;;;;;;11.35;5.15;;;;;;;21.54;56.45;99337.44;3463806;28;20121;-75
2021/08/20 00:14:08;;;;;;;8.60;4.60;;;;;;;21.54;56.47;99332.81;3461672;28;20452;-75
2021/08/20 00:15:49;;;;;;;11.43;5.03;;;;;;;21.55;56.15;99339.06;3458340;28;20040;-75
2021/08/20 00:17:30;;;;;;;9.13;4.73;;;;;;;21.54;56.32;99342.88;3462674;28;20102;-74
2021/08/20 00:19:11;;;;;;;9.07;4.83;;;;;;;21.52;56.44;99342.31;3461805;28;20072;-76
2021/08/20 00:20:52;;;;;;;9.23;4.10;;;;;;;21.54;56.37;99349.09;3462014;28;20129;-74
2021/08/20 00:22:32;;;;;;;11.30;5.17;;;;;;;21.54;56.34;99351.00;3461642;28;20046;-75
2021/08/20 00:24:15;;;;;;;12.40;5.63;;;;;;;21.54;56.48;99351.00;3460977;28;20419;-75
2021/08/20 00:25:55;;;;;;;16.75;5.00;;;;;;;21.54;56.61;99349.09;3461170;28;20065;-72
2021/08/20 00:27:36;;;;;;;22.57;6.87;;;;;;;21.56;56.58;99348.84;3465872;28;20386;-72
2021/08/20 00:29:17;;;;;;;18.33;6.07;;;;;;;21.55;56.54;99353.41;3469268;28;20049;-71
2021/08/20 00:30:59;;;;;;;20.83;6.90;;;;;;;21.55;56.50;99350.72;3469722;28;20504;-73
2021/08/20 00:32:40;;;;;;;13.57;5.78;;;;;;;21.58;56.57;99359.38;3452610;28;20045;-72
2021/08/20 00:34:20;;;;;;;12.60;6.27;;;;;;;21.56;56.50;99365.09;3465617;28;20048;-73
2021/08/20 00:36:02;;;;;;;16.00;5.17;;;;;;;21.57;56.45;99369.44;3467833;28;20619;-73
2021/08/20 00:37:43;;;;;;;15.48;5.82;;;;;;;21.57;56.52;99364.00;3467037;28;20041;-72
2021/08/20 00:39:28;;;;;;;15.13;6.05;;;;;;;21.56;56.57;99368.63;3456335;28;20077;-73
2021/08/20 00:41:10;;;;;;;;;;;;;;;21.62;56.43;99361.28;3456518;28;20053;-71
2021/08/20 00:42:51;;;;;;;21.25;6.65;;;;;;;21.53;56.56;99371.09;3457896;28;19917;-72
2021/08/20 00:44:31;;;;;;;12.07;6.30;;;;;;;21.48;56.68;99365.66;3469580;28;20036;-73
2021/08/20 00:46:12;;;;;;;26.50;9.83;;;;;;;21.47;56.61;99374.88;3468541;28;20087;-72
2021/08/20 00:47:54;;;;;;;28.58;13.20;;;;;;;21.45;56.58;99364.31;3454576;28;20042;-72
2021/08/20 00:49:35;;;;;;;44.33;18.63;;;;;;;21.46;56.77;99368.66;3464172;28;20137;-72
2021/08/20 00:51:27;;;;;;;41.43;18.53;;;;;;;21.48;56.76;99366.47;3469700;28;20037;-73
2021/08/20 00:53:07;;;;;;;48.47;15.10;;;;;;;21.45;56.72;99367.03;3466636;28;20037;-73
2021/08/20 00:54:48;;;;;;;33.47;12.47;;;;;;;21.47;56.76;99369.44;3467963;28;20056;-73
2021/08/20 00:56:29;;;;;;;20.90;7.70;;;;;;;21.39;56.82;99364.59;3466769;28;20053;-73
2021/08/20 00:58:10;;;;;;;13.93;7.17;;;;;;;21.36;57.08;99363.22;3468871;28;20042;-73
2021/08/20 00:59:50;;;;;;;13.67;5.40;;;;;;;21.30;57.37;99370.53;3469292;28;20057;-73
2021/08/20 01:01:32;;;;;;;11.43;5.10;;;;;;;21.21;57.73;99366.75;3468348;28;20124;-72
2021/08/20 01:03:13;;;;;;;13.27;5.13;;;;;;;21.16;57.87;99368.66;3467403;28;20037;-72
2021/08/20 01:04:54;;;;;;;16.70;4.18;;;;;;;21.12;57.73;99376.53;3465895;28;20435;-73
2021/08/20 01:06:40;;;;;;;16.80;4.90;;;;;;;21.10;58.07;99371.38;3466087;28;20113;-74
2021/08/20 01:08:23;;;;;;;7.40;3.75;;;;;;;21.05;58.21;99359.72;3478217;28;20140;-71
2021/08/20 01:10:07;;;;;;;;;;;;;;;21.10;57.63;99371.38;3467263;28;20041;-71
2021/08/20 01:11:49;;;;;;;8.35;4.25;;;;;;;21.03;57.93;99380.84;3462285;28;19921;-72
2021/08/20 01:13:38;;;;;;;10.20;4.22;;;;;;;21.03;58.15;99381.66;3463359;28;20063;-72
2021/08/20 01:15:18;;;;;;;13.80;5.25;;;;;;;21.03;58.38;99372.72;3466313;28;20516;-73
2021/08/20 01:17:06;;;;;;;9.80;4.85;;;;;;;21.04;58.34;99367.03;3468121;28;20068;-74
2021/08/20 01:18:50;;;;;;;14.48;5.05;;;;;;;21.08;58.30;99367.28;3455167;28;20087;-72
2021/08/20 01:20:31;;;;;;;6.53;4.03;;;;;;;21.05;58.23;99367.84;3456154;28;20045;-72
2021/08/20 01:22:14;;;;;;;11.05;5.53;;;;;;;21.08;58.22;99373.53;3469401;28;20566;-72
2021/08/20 01:24:00;;;;;;;15.77;4.47;;;;;;;21.06;58.53;99372.16;3467016;28;20069;-71
2021/08/20 01:25:42;;;;;;;10.48;4.38;;;;;;;21.03;58.45;99372.72;3466832;28;20527;-72
2021/08/20 01:27:22;;;;;;;16.50;5.22;;;;;;;21.07;58.36;99376.53;3467968;28;20037;-72
2021/08/20 01:29:03;;;;;;;12.63;4.87;;;;;;;21.03;58.52;99378.13;3469263;28;20065;-72
2021/08/20 01:30:45;;;;;;;12.70;4.90;;;;;;;21.03;58.54;99372.72;3447585;28;20576;-72
2021/08/20 01:32:26;;;;;;;13.35;5.35;;;;;;;21.03;58.64;99378.13;3463147;28;20049;-72
2021/08/20 01:34:08;;;;;;;16.50;5.07;;;;;;;21.02;58.46;99382.75;3459765;28;20037;-72
2021/08/20 01:35:49;;;;;;;15.83;4.67;;;;;;;21.04;58.62;99380.59;3465637;28;20597;-72
2021/08/20 01:37:29;;;;;;;10.67;4.47;;;;;;;21.06;58.29;99388.44;3467962;28;20045;-73
2021/08/20 01:39:11;;;;;;;16.95;5.40;;;;;;;21.06;58.48;99391.94;3465640;28;20038;-72
2021/08/20 01:40:52;;;;;;;12.10;4.97;;;;;;;21.06;58.35;99388.44;3465493;28;20588;-71
2021/08/20 01:42:33;;;;;;;16.08;6.22;;;;;;;21.09;58.36;99398.72;3464807;28;20058;-71
2021/08/20 01:44:14;;;;;;;14.17;5.17;;;;;;;21.03;58.27;99394.41;3467943;28;20053;-71
2021/08/20 01:45:55;;;;;;;12.13;6.40;;;;;;;20.99;58.58;99393.28;3469625;28;20132;-72
2021/08/20 01:47:36;;;;;;;23.10;5.33;;;;;;;20.96;58.69;99388.41;3471367;28;20284;-72
2021/08/20 01:49:17;;;;;;;11.73;5.07;;;;;;;20.93;58.80;99389.78;3469031;28;20041;-72
2021/08/20 01:50:58;;;;;;;7.38;4.53;;;;;;;20.93;58.75;99387.06;3471625;28;20041;-73
2021/08/20 01:52:39;;;;;;;11.47;4.33;;;;;;;20.94;58.59;99386.00;3457061;28;20049;-72
2021/08/20 01:54:19;;;;;;;9.57;4.50;;;;;;;20.92;58.57;99386.25;3463205;28;22191;-73
2021/08/20 01:56:00;;;;;;;6.80;4.03;;;;;;;20.97;58.45;99387.34;3451777;28;20042;-72
2021/08/20 01:57:41;;;;;;;21.63;7.13;;;;;;;20.99;58.51;99390.59;3460455;28;20080;-72
2021/08/20 01:59:23;;;;;;;24.55;7.60;;;;;;;21.01;58.44;99393.84;3470236;28;20507;-71
2021/08/20 02:01:04;;;;;;;41.07;9.43;;;;;;;21.02;58.47;99400.91;3468303;28;20049;-72
2021/08/20 02:02:45;;;;;;;41.77;10.47;;;;;;;21.04;58.32;99404.97;3470668;28;20099;-73
2021/08/20 02:04:30;;;;;;;28.35;7.28;;;;;;;21.08;58.29;99410.66;3460680;28;20041;-73
2021/08/20 02:06:11;;;;;;;27.43;6.83;;;;;;;21.09;58.31;99406.84;3470624;28;20045;-72
2021/08/20 02:07:56;;;;;;;19.05;6.47;;;;;;;21.09;58.34;99402.28;3470144;28;20064;-71
2021/08/20 02:09:38;;;;;;;18.92;5.97;;;;;;;21.10;58.17;99414.72;3467971;28;20095;-71
2021/08/20 02:11:19;;;;;;;19.07;5.87;;;;;;;21.09;58.26;99407.69;3481543;28;20492;-71
2021/08/20 02:13:07;;;;;;;20.85;4.78;;;;;;;21.08;58.13;99405.22;3455971;28;20132;-71
2021/08/20 02:14:47;;;;;;;31.77;6.03;;;;;;;21.08;58.22;99406.03;3450504;28;20042;-71
2021/08/20 02:16:28;;;;;;;11.93;5.07;;;;;;;21.09;58.25;99402.28;3467677;28;20560;-72
2021/08/20 02:18:10;;;;;;;12.52;4.75;;;;;;;21.10;58.09;99392.22;3470458;28;20068;-72
2021/08/20 02:19:50;;;;;;;6.47;3.90;;;;;;;21.10;57.90;99400.38;3471340;28;20064;-72
2021/08/20 02:21:31;;;;;;;7.50;4.47;;;;;;;21.09;57.96;99406.84;3469359;28;20052;-72
2021/08/20 02:23:17;;;;;;;6.32;3.60;;;;;;;21.02;57.76;99396.28;3464443;28;20504;-72
2021/08/20 02:25:00;;;;;;;6.78;3.30;;;;;;;21.01;58.17;99388.44;3475366;28;20048;-72
2021/08/20 02:26:41;;;;;;;9.37;4.67;;;;;;;21.01;58.14;99393.84;3464475;28;20497;-72
2021/08/20 02:28:22;;;;;;;13.23;3.95;;;;;;;21.01;58.17;99388.44;3465570;28;20179;-72
2021/08/20 02:30:04;;;;;;;13.73;4.50;;;;;;;21.02;58.19;99393.59;3470090;28;20423;-73
2021/08/20 02:31:52;;;;;;;9.95;4.15;;;;;;;21.02;58.46;99396.28;3470196;28;20409;-72
2021/08/20 02:33:34;;;;;;;7.80;4.43;;;;;;;21.04;58.50;99399.56;3467970;28;20084;-72
2021/08/20 02:35:17;;;;;;;13.43;4.78;;;;;;;21.03;58.33;99392.50;3460362;28;20037;-72
2021/08/20 02:36:57;;;;;;;15.57;5.13;;;;;;;21.05;58.37;99395.75;3470913;28;20404;-72
2021/08/20 02:38:39;;;;;;;10.13;4.40;;;;;;;21.07;58.49;99398.19;3466504;28;20045;-72
2021/08/20 02:40:20;;;;;;;11.57;3.85;;;;;;;21.08;58.44;99397.91;3454076;28;20050;-72
2021/08/20 02:42:03;;;;;;;9.60;3.63;;;;;;;21.09;58.47;99396.84;3465235;28;20081;-72
2021/08/20 02:43:44;;;;;;;10.15;4.22;;;;;;;21.09;58.36;99388.72;3466524;28;20044;-72
2021/08/20 02:45:25;;;;;;;10.10;4.00;;;;;;;21.11;58.06;99401.97;3469568;28;20046;-73
2021/08/20 02:47:14;;;;;;;11.10;3.85;;;;;;;21.09;58.16;99396.00;3469961;28;20577;-72
2021/08/20 02:48:56;;;;;;;10.75;5.30;;;;;;;21.10;58.36;99395.75;3471039;28;20163;-73
2021/08/20 02:50:39;;;;;;;10.40;4.00;;;;;;;21.09;58.19;99393.31;3461783;28;20058;-71
2021/08/20 02:52:20;;;;;;;7.47;4.17;;;;;;;21.10;58.19;99392.22;3456980;28;20058;-71
2021/08/20 02:54:02;;;;;;;17.73;4.15;;;;;;;21.11;58.18;99393.84;3468449;28;20074;-70
2021/08/20 02:55:43;;;;;;;8.27;4.20;;;;;;;21.09;58.32;99396.00;3466242;28;20042;-71
2021/08/20 02:57:27;;;;;;;8.57;4.67;;;;;;;21.05;58.47;99405.78;3478124;28;20072;-70
2021/08/20 02:59:10;;;;;;;11.90;5.00;;;;;;;20.98;58.62;99384.34;3469200;28;20535;-71
2021/08/20 03:00:51;;;;;;;15.88;4.88;;;;;;;20.97;58.52;99395.50;3464853;28;20045;-72
2021/08/20 03:02:32;;;;;;;8.57;3.73;;;;;;;20.98;58.53;99397.91;3453220;28;20524;-73
2021/08/20 03:04:13;;;;;;;6.07;4.30;;;;;;;20.99;58.53;99396.84;3453544;28;20292;-72
2021/08/20 03:05:55;;;;;;;14.87;5.30;;;;;;;20.99;58.57;99399.56;3465068;28;20490;-72
2021/08/20 03:07:59;;;;;;;13.23;5.07;;;;;;;20.97;58.61;99396.28;3469768;28;20127;-71
2021/08/20 03:09:44;;;;;;;7.45;4.57;;;;;;;21.00;58.57;99403.88;3468043;28;20658;-73
2021/08/20 03:11:24;;;;;;;10.52;4.63;;;;;;;20.99;58.77;99402.25;3481013;28;20112;-72
2021/08/20 03:13:05;;;;;;;18.27;6.67;;;;;;;20.96;59.03;99410.09;3474370;28;20087;-73
2021/08/20 03:14:46;;;;;;;15.73;6.32;;;;;;;20.90;59.25;99404.69;3471700;28;20067;-72
2021/08/20 03:16:26;;;;;;;16.10;6.67;;;;;;;20.86;59.25;99413.63;3468923;28;20045;-73
2021/08/20 03:18:07;;;;;;;11.73;6.55;;;;;;;20.81;59.10;99413.63;3465637;28;20056;-73
2021/08/20 03:19:50;;;;;;;10.82;5.90;;;;;;;20.77;59.49;99412.53;3466386;28;20071;-72
2021/08/20 03:21:31;;;;;;;13.60;6.20;;;;;;;20.76;59.32;99419.84;3466978;28;20548;-74
2021/08/20 03:23:26;;;;;;;16.60;5.90;;;;;;;20.72;59.63;99413.31;3563115;27;20477;-73
2021/08/20 03:25:19;;;;;;;8.50;5.47;;;;;;;20.74;59.80;99418.47;3505164;27;1355677;-73
2021/08/20 03:27:12;;;;;;;12.32;5.20;;;;;;;20.76;59.63;99414.44;3499610;27;1363424;-74
2021/08/20 03:29:14;;;;;;;20.13;5.70;;;;;;;20.82;59.59;99421.47;3495607;28;20529;-73
2021/08/20 03:31:23;;;;;;;9.35;4.70;;;;;;;20.84;59.76;99416.59;3522519;27;20955;-73
2021/08/20 03:33:18;;;;;;;11.68;4.75;;;;;;;20.92;59.10;99417.97;3523278;27;20799;-72
2021/08/20 03:35:21;;;;;;;11.70;5.35;;;;;;;20.97;59.23;99420.69;3537696;27;20378;-72
2021/08/20 03:37:14;;;;;;;12.98;4.47;;;;;;;21.00;59.34;99406.59;3504879;27;1366808;-73
2021/08/20 03:39:09;;;;;;;8.55;4.15;;;;;;;21.05;59.01;99405.78;3506949;27;1366590;-72
2021/08/20 03:41:01;;;;;;;13.52;5.13;;;;;;;21.05;59.14;99417.44;3507038;27;1358046;-72
2021/08/20 03:43:01;;;;;;;17.65;5.45;;;;;;;21.10;59.07;99414.72;3505081;27;1355116;-72
2021/08/20 03:45:33;;;;;;;15.95;5.75;;;;;;;21.13;59.16;99418.78;3509872;27;1386258;-73
2021/08/20 03:47:35;;;;;;;17.90;6.05;;;;;;;21.17;58.99;99425.31;3495336;28;20473;-72
2021/08/20 03:49:28;;;;;;;29.15;6.80;;;;;;;21.21;58.89;99420.94;3504523;27;1431635;-73
2021/08/20 03:51:21;;;;;;;20.55;5.45;;;;;;;21.25;58.93;99421.25;3495829;28;20917;-73
2021/08/20 03:53:13;;;;;;;13.75;5.53;;;;;;;21.25;58.68;99411.22;3497768;27;1354995;-72
2021/08/20 03:55:07;;;;;;;12.82;5.95;;;;;;;21.28;58.90;99416.06;3493886;27;1366552;-72
2021/08/20 03:57:05;;;;;;;9.25;4.90;;;;;;;21.33;58.88;99424.22;3496056;27;20391;-72
2021/08/20 03:59:00;;;;;;;11.07;4.68;;;;;;;21.38;58.41;99425.31;3496207;27;1355286;-73
2021/08/20 04:00:55;;;;;;;15.40;4.50;;;;;;;21.40;58.37;99421.25;3497651;28;20393;-72
2021/08/20 04:02:48;;;;;;;11.57;4.50;;;;;;;21.45;58.10;99431.28;3506651;27;1373009;-72
2021/08/20 04:04:40;;;;;;;12.68;5.18;;;;;;;21.49;58.08;99437.78;3506772;27;1358684;-71
2021/08/20 04:06:48;;;;;;;9.52;4.18;;;;;;;21.53;58.13;99431.56;3505862;27;20409;-73
2021/08/20 04:08:40;;;;;;;16.08;4.57;;;;;;;21.56;57.76;99430.19;3499233;27;1356345;-73
2021/08/20 04:10:52;;;;;;;11.68;5.07;;;;;;;21.59;57.82;99426.13;3501096;28;20164;-72
2021/08/20 04:13:05;;;;;;;14.13;4.90;;;;;;;21.61;57.47;99434.78;3495969;27;1364503;-72
2021/08/20 04:15:05;;;;;;;10.85;4.72;;;;;;;21.61;57.63;99434.78;3494821;27;1356551;-73
2021/08/20 04:16:58;;;;;;;11.95;4.75;;;;;;;21.61;57.76;99435.59;3505276;27;1380677;-72
2021/08/20 04:18:51;;;;;;;8.30;4.32;;;;;;;21.64;57.56;99431.53;3498272;27;1378120;-73
2021/08/20 04:20:45;;;;;;;7.88;4.45;;;;;;;21.66;57.70;99430.19;3523393;27;20377;-73
2021/08/20 04:22:38;;;;;;;11.88;4.88;;;;;;;21.66;57.46;99427.47;3495269;28;20391;-72
2021/08/20 04:24:32;;;;;;;9.45;4.40;;;;;;;21.65;57.34;99428.53;3512795;27;20406;-72
2021/08/20 04:27:32;;;;;;;10.18;4.65;;;;;;;21.71;57.12;99432.03;3497981;27;1347769;-73
2021/08/20 04:29:51;;;;;;;9.48;4.10;;;;;;;21.71;57.01;99430.16;3523279;27;20372;-73
2021/08/20 04:32:11;;;;;;;8.27;4.63;;;;;;;21.79;57.10;99428.78;3506809;27;1362203;-72
2021/08/20 04:34:30;;;;;;;17.27;5.20;;;;;;;21.81;56.88;99423.06;3529893;27;20388;-72
2021/08/20 04:36:49;;;;;;;9.32;4.22;;;;;;;21.87;56.81;99427.41;3494875;28;20387;-73
2021/08/20 04:39:07;;;;;;;11.52;4.68;;;;;;;21.89;56.62;99433.38;3519674;27;20400;-72
2021/08/20 04:41:11;;;;;;;8.48;3.92;;;;;;;21.98;56.70;99426.28;3501695;28;21028;-72
2021/08/20 04:43:36;;;;;;;12.57;4.60;;;;;;;22.08;56.38;99428.16;3483563;27;1687461;-73
2021/08/20 04:45:46;;;;;;;11.98;5.55;;;;;;;22.13;56.35;99430.88;3492321;27;1674791;-72
2021/08/20 04:47:57;;;;;;;14.23;5.50;;;;;;;22.29;56.08;99423.50;3503909;27;1349893;-72
2021/08/20 04:50:11;;;;;;;10.95;5.32;;;;;;;22.43;55.57;99429.94;3493421;27;1401953;-72
2021/08/20 04:52:21;;;;;;;13.55;9.07;;;;;;;22.56;54.81;99429.34;3498623;27;1366613;-72
2021/08/20 04:54:35;;;;;;;13.75;8.45;;;;;;;22.73;54.79;99428.16;3497439;27;1356761;-72
2021/08/20 04:56:36;;;;;;;15.00;8.90;;;;;;;22.85;54.31;99426.72;3506047;27;1365644;-72
2021/08/20 04:58:28;;;;;;;12.57;6.70;;;;;;;22.97;54.30;99428.28;3023016;27;15069640;-73
2021/08/20 05:00:22;;;;;;;9.07;6.13;;;;;;;23.02;53.83;99431.78;2575210;27;27013222;-72
2021/08/20 05:02:14;;;;;;;9.05;5.38;;;;;;;23.06;54.03;99432.03;2926243;27;17821493;-72
2021/08/20 05:04:05;;;;;;;9.10;4.93;;;;;;;23.10;53.92;99432.28;3025327;27;15064353;-72
2021/08/20 05:05:57;;;;;;;11.20;5.57;;;;;;;23.12;53.65;99424.66;3029332;27;15071240;-72
2021/08/20 05:07:49;;;;;;;9.90;5.07;;;;;;;23.15;53.64;99429.50;3030100;27;15067350;-73
2021/08/20 05:09:42;;;;;;;11.93;4.22;;;;;;;23.21;53.56;99431.13;2925905;27;17912799;-74
2021/08/20 05:11:35;;;;;;;10.18;4.82;;;;;;;23.23;53.65;99431.63;2930864;27;17836893;-73
2021/08/20 05:13:28;;;;;;;8.50;4.70;;;;;;;23.27;53.36;99433.50;3020960;27;15065271;-74
2021/08/20 05:15:19;;;;;;;15.70;5.18;;;;;;;23.30;53.57;99426.66;2887147;27;18742224;-73
2021/08/20 05:17:13;;;;;;;17.83;4.75;;;;;;;23.36;53.62;99430.97;2820346;27;20969280;-73
2021/08/20 05:19:05;;;;;;;19.87;5.00;;;;;;;23.38;53.44;99428.75;3031314;27;15066180;-72
2021/08/20 05:21:12;;;;;;;12.63;4.78;;;;;;;23.46;53.21;99433.59;3510386;27;20419;-73
2021/08/20 05:23:06;;;;;;;8.23;4.43;;;;;;;23.54;53.06;99442.22;3028898;27;15072570;-73
2021/08/20 05:25:15;;;;;;;14.70;4.65;;;;;;;23.56;53.22;99437.31;3525602;27;20424;-74
2021/08/20 05:27:07;;;;;;;9.77;4.38;;;;;;;23.60;52.99;99432.94;2822461;27;20817330;-74
2021/08/20 05:28:59;;;;;;;11.02;4.45;;;;;;;23.63;53.14;99427.72;3029804;27;15078062;-76
2021/08/20 05:30:54;;;;;;;16.58;5.50;;;;;;;23.71;52.69;99437.16;3499065;27;20449;-75
2021/08/20 05:32:47;;;;;;;10.07;4.15;;;;;;;23.73;52.43;99433.09;3506251;27;1389556;-74
2021/08/20 05:34:41;;;;;;;12.35;4.80;;;;;;;23.79;52.52;99428.41;3484018;27;1380787;-74
2021/08/20 05:36:33;;;;;;;12.40;7.72;;;;;;;23.84;52.12;99428.34;3507104;27;1355159;-73
2021/08/20 05:38:27;;;;;;;15.35;6.32;;;;;;;23.90;51.69;99429.09;3501562;27;1358518;-75
2021/08/20 05:40:19;;;;;;;12.48;5.47;;;;;;;23.98;51.66;99435.81;3502065;27;1372353;-75
2021/08/20 05:42:39;;;;;;;13.00;5.60;;;;;;;24.08;51.43;99438.44;3505922;27;1371174;-75
2021/08/20 05:44:46;;;;;;;12.48;5.90;;;;;;;24.14;51.32;99424.47;3498313;27;1366413;-74
2021/08/20 05:46:40;;;;;;;8.38;4.50;;;;;;;24.22;51.14;99430.38;3520036;27;20408;-74
2021/08/20 05:48:33;;;;;;;5.75;4.30;;;;;;;24.27;50.72;99428.41;3487047;27;1355036;-75
2021/08/20 05:50:54;;;;;;;10.57;4.63;;;;;;;24.38;51.09;99429.88;3498088;27;1392482;-74
2021/08/20 05:52:47;;;;;;;11.75;4.45;;;;;;;24.47;50.96;99434.72;3505870;27;1368060;-74
2021/08/20 05:54:40;;;;;;;8.57;4.30;;;;;;;24.52;50.60;99430.00;3497644;28;20482;-75
2021/08/20 05:56:34;;;;;;;7.95;4.15;;;;;;;24.57;50.24;99438.09;3506611;27;1369952;-74
2021/08/20 05:58:26;;;;;;;9.73;5.10;;;;;;;24.62;50.17;99431.78;3505278;27;1357704;-74
2021/08/20 06:00:20;;;;;;;6.07;4.38;;;;;;;24.69;49.74;99440.41;3520059;27;20776;-74
2021/08/20 06:02:22;;;;;;;10.88;4.50;;;;;;;24.77;49.63;99431.56;3485860;28;20280;-75
2021/08/20 06:04:14;;;;;;;16.77;4.03;;;;;;;24.85;48.95;99437.47;3503028;27;1392097;-74
2021/08/20 06:06:17;;;;;;;6.20;3.63;;;;;;;24.92;48.50;99435.19;3504038;27;1357727;-73
2021/08/20 06:08:10;;;;;;;8.73;4.05;;;;;;;25.01;48.10;99423.31;3494393;27;1426102;-73
2021/08/20 06:10:06;;;;;;;10.02;4.15;;;;;;;25.19;47.51;99435.31;3521919;27;20466;-74
2021/08/20 06:11:59;;;;;;;6.65;3.22;;;;;;;25.34;47.94;99433.44;3507258;27;1360285;-73
2021/08/20 06:13:51;;;;;;;7.68;3.97;;;;;;;25.51;46.87;99439.16;3500616;27;1351687;-73
2021/08/20 06:15:45;;;;;;;9.35;3.63;;;;;;;25.63;46.56;99442.19;3545831;27;20407;-75
2021/08/20 06:17:38;;;;;;;7.93;3.58;;;;;;;25.73;45.62;99434.94;3494348;27;1432364;-72
2021/08/20 06:19:32;;;;;;;10.20;4.07;;;;;;;25.86;45.31;99436.91;3523355;27;20775;-74
2021/08/20 06:21:24;;;;;;;12.77;4.68;;;;;;;26.01;44.60;99436.59;3498855;27;1351959;-74
2021/08/20 06:23:17;;;;;;;6.07;4.22;;;;;;;26.10;44.47;99423.06;3514351;27;20401;-74
2021/08/20 06:25:11;;;;;;;6.60;4.03;;;;;;;26.30;43.77;99438.22;3484702;27;1399653;-73
2021/08/20 06:27:05;;;;;;;10.30;4.35;;;;;;;26.43;43.56;99431.91;3445670;27;2308870;-74
2021/08/20 06:28:58;;;;;;;10.23;4.43;;;;;;;26.59;42.84;99434.34;3454074;27;1450589;-72
2021/08/20 06:30:53;;;;;;;12.38;5.10;;;;;;;26.76;42.80;99429.03;3478667;27;1879818;-74
2021/08/20 06:32:54;;;;;;;9.70;4.72;;;;;;;26.94;42.09;99436.28;3542494;27;20941;-74
2021/08/20 06:35:16;;;;;;;7.20;4.00;;;;;;;27.14;42.04;99428.72;3467008;27;1413121;-73
2021/08/20 06:37:09;;;;;;;6.25;3.28;;;;;;;27.26;41.04;99429.00;3480940;27;1377277;-74
2021/08/20 06:39:03;;;;;;;4.93;3.67;;;;;;;27.39;40.86;99430.84;3475971;27;1644236;-74
2021/08/20 06:40:56;;;;;;;8.83;3.67;;;;;;;27.56;41.10;99435.59;3480511;27;1412366;-70
2021/08/20 06:42:49;;;;;;;12.10;4.32;;;;;;;27.76;42.83;99433.44;3485499;27;1379615;-68
2021/08/20 06:44:49;;;;;;;8.65;4.28;;;;;;;27.95;43.18;99430.50;3479751;28;20740;-69
2021/08/20 06:46:43;;;;;;;11.23;4.72;;;;;;;28.14;42.59;99431.06;3492597;28;20465;-69
2021/08/20 06:48:36;;;;;;;7.53;3.90;;;;;;;28.33;42.26;99430.75;3458488;27;2124080;-71
2021/08/20 06:50:32;;;;;;;9.82;4.63;;;;;;;28.48;41.99;99437.78;3520023;27;20376;-68
2021/08/20 06:52:25;;;;;;;8.10;4.18;;;;;;;28.61;41.69;99431.31;3477702;27;1870539;-68
2021/08/20 06:54:22;;;;;;;8.68;4.35;;;;;;;28.76;41.16;99429.22;3440687;27;2681485;-67
2021/08/20 06:56:16;;;;;;;6.13;3.72;;;;;;;28.88;40.75;99418.41;3521365;27;20393;-69
2021/08/20 06:58:11;;;;;;;7.35;4.63;;;;;;;29.05;40.60;99428.63;3433650;27;3056682;-68
2021/08/20 07:00:08;;;;;;;12.32;4.03;;;;;;;29.17;40.79;99425.22;3506360;27;20419;-69
2021/08/20 07:02:03;;;;;;;8.37;4.40;;;;;;;29.24;39.92;99425.53;3469028;27;1988660;-70
2021/08/20 07:04:02;;;;;;;7.93;3.95;;;;;;;29.31;39.63;99421.16;3492964;28;20922;-68
2021/08/20 07:05:55;;;;;;;9.98;4.13;;;;;;;29.40;39.62;99412.88;3422118;27;3378761;-70
2021/08/20 07:08:18;;;;;;;11.02;4.15;;;;;;;29.51;38.97;99418.84;3361067;27;5416469;-68
2021/08/20 07:10:14;;;;;;;8.93;4.07;;;;;;;29.60;38.58;99416.88;3483494;27;20384;-69
2021/08/20 07:12:07;;;;;;;6.72;3.72;;;;;;;29.71;38.82;99415.41;3472669;27;1958307;-70
2021/08/20 07:14:01;;;;;;;7.93;3.30;;;;;;;29.80;38.42;99418.13;3489899;28;20386;-67
2021/08/20 07:15:56;;;;;;;16.83;4.10;;;;;;;29.88;38.18;99410.97;3521250;27;20388;-70
2021/08/20 07:17:52;;;;;;;8.20;4.07;;;;;;;29.97;38.22;99415.31;3521414;27;20414;-69
2021/08/20 07:19:49;;;;;;;11.40;5.72;;;;;;;30.07;38.38;99411.34;3510713;27;20125;-70
2021/08/20 07:21:46;;;;;;;15.30;5.13;;;;;;;30.19;38.23;99416.16;3516655;27;20351;-69
2021/08/20 07:23:40;;;;;;;9.52;5.97;;;;;;;30.30;38.08;99413.84;3493090;27;1383487;-70
2021/08/20 07:25:37;;;;;;;15.15;4.68;;;;;;;30.40;37.54;99410.72;3489634;28;20422;-70
2021/08/20 07:27:19;;;;;;;10.60;5.32;;;;;;;30.52;37.53;99412.75;3493116;28;20427;-69
2021/08/20 07:29:14;;;;;;;10.75;4.95;;;;;;;30.65;37.21;99417.19;3504002;27;1392596;-68
2021/08/20 07:31:07;;;;;;;10.00;4.90;;;;;;;30.73;36.61;99412.75;3430123;27;3183299;-69
2021/08/20 07:33:04;;;;;;;7.63;4.28;;;;;;;30.78;36.25;99416.09;3520767;27;20473;-68
2021/08/20 07:34:59;;;;;;;7.95;4.43;;;;;;;30.86;36.09;99411.69;3517515;27;20462;-68
2021/08/20 07:36:56;;;;;;;7.78;4.50;;;;;;;30.98;35.94;99416.44;3480395;27;20392;-69
2021/08/20 07:38:56;;;;;;;10.77;4.90;;;;;;;31.06;35.84;99404.56;3489281;28;20404;-69
2021/08/20 07:40:52;;;;;;;7.68;3.97;;;;;;;31.13;35.57;99407.53;3507450;27;20390;-69
2021/08/20 07:42:48;;;;;;;8.57;4.03;;;;;;;31.17;34.80;99411.25;3521571;27;20421;-69
2021/08/20 07:44:43;;;;;;;4.13;3.58;;;;;;;31.26;34.71;99405.63;3493371;28;20442;-70
2021/08/20 07:46:38;;;;;;;8.43;4.20;;;;;;;31.37;34.57;99415.09;3521353;27;20388;-68
2021/08/20 07:48:30;;;;;;;6.40;3.92;;;;;;;31.45;34.53;99405.16;3408723;27;3714516;-68
2021/08/20 07:50:27;;;;;;;6.40;3.05;;;;;;;31.55;34.03;99415.75;3520560;27;20493;-69
2021/08/20 07:52:20;;;;;;;5.05;4.07;;;;;;;31.62;33.66;99410.44;3453195;27;2523994;-69
2021/08/20 07:54:15;;;;;;;8.48;3.38;;;;;;;31.67;34.02;99404.72;3494220;27;20421;-68
2021/08/20 07:56:10;;;;;;;13.37;3.73;;;;;;;31.72;34.00;99404.50;3455167;27;2536939;-74
2021/08/20 07:58:04;;;;;;;9.33;3.90;;;;;;;31.81;34.00;99398.09;3380322;27;4631641;-69
2021/08/20 07:59:57;;;;;;;4.45;3.10;;;;;;;31.95;33.69;99398.56;3493326;27;1396981;-71
2021/08/20 08:01:38;;;;;;;6.95;3.08;;;;;;;32.07;34.19;99408.78;3520484;28;20036;-70
2021/08/20 08:03:32;;;;;;;11.45;3.38;;;;;;;32.20;33.74;99402.13;3014670;27;15066189;-69
2021/08/20 08:05:40;;;;;;;13.23;3.55;;;;;;;32.36;33.60;99405.75;3507621;27;20405;-70
2021/08/20 08:07:50;;;;;;;6.80;3.47;;;;;;;32.53;32.46;99401.97;3508363;27;20400;-73
2021/08/20 08:09:43;;;;;;;9.00;3.15;;;;;;;32.66;32.22;99402.75;2884288;27;18768820;-74
2021/08/20 08:11:41;;;;;;;9.30;4.00;;;;;;;32.69;30.92;99404.00;3018386;27;15076010;-72
2021/08/20 08:13:33;;;;;;;11.30;4.18;;;;;;;32.71;31.52;99416.31;2883595;27;18684404;-73
2021/08/20 08:15:27;;;;;;;8.67;3.50;;;;;;;32.64;31.28;99405.03;3005130;27;15124729;-71
2021/08/20 08:17:44;;;;;;;7.90;4.03;;;;;;;32.65;30.78;99405.84;3537550;27;20415;-71
2021/08/20 08:19:36;;;;;;;10.60;4.03;;;;;;;32.72;30.37;99401.34;3029525;27;15069952;-71
2021/08/20 08:21:30;;;;;;;7.18;3.50;;;;;;;32.84;30.60;99405.19;2883927;27;18628199;-69
2021/08/20 08:23:24;;;;;;;5.50;3.80;;;;;;;32.94;30.51;99407.47;2998753;27;15073740;-71
2021/08/20 08:25:16;;;;;;;8.63;4.03;;;;;;;32.95;30.17;99404.34;3005782;27;15069068;-72
2021/08/20 08:27:11;;;;;;;10.60;5.07;;;;;;;32.97;30.16;99401.25;2816121;27;20974488;-70
2021/08/20 08:29:03;;;;;;;11.43;4.40;;;;;;;32.97;29.86;99406.78;3029467;27;15073216;-70
2021/08/20 08:30:56;;;;;;;10.37;5.53;;;;;;;32.94;29.79;99408.28;3024567;27;15067776;-71
2021/08/20 08:33:09;;;;;;;9.32;4.00;;;;;;;32.93;29.54;99401.13;3579498;27;20431;-70
2021/08/20 08:35:01;;;;;;;11.83;3.40;;;;;;;33.06;29.59;99390.88;2921843;27;17865468;-71